createdAt,value
2023-05-10T00:00:00.526Z,51.7692
2023-05-10T00:01:01.531Z,49.9231
2023-05-10T00:02:02.572Z,46.7692
2023-05-10T00:03:03.655Z,43.2308
2023-05-10T00:04:04.666Z,41.4615
2023-05-10T00:05:05.612Z,42.0769
2023-05-10T00:06:06.642Z,47.1538
2023-05-10T00:07:07.692Z,55.5385
2023-05-10T00:08:08.735Z,59.5385
2023-05-10T00:09:09.781Z,56.8462
2023-05-10T00:10:10.757Z,54.1538
2023-05-10T00:11:11.811Z,52.0769
2023-05-10T00:12:12.794Z,57.0000
2023-05-10T00:13:13.960Z,60.1538
2023-05-10T00:14:14.928Z,60.0000
2023-05-10T00:15:15.943Z,53.4615
2023-05-10T00:16:17.028Z,47.2308
2023-05-10T00:17:18.016Z,50.8462
2023-05-10T00:18:19.028Z,55.2308
2023-05-10T00:19:20.089Z,53.0000
2023-05-10T00:20:21.051Z,53.6154
2023-05-10T00:21:22.090Z,57.0000
2023-05-10T00:22:23.126Z,60.3077
2023-05-10T00:23:24.195Z,62.3077
2023-05-10T00:24:25.234Z,69.2308
2023-05-10T00:25:26.213Z,75.0769
2023-05-10T00:26:27.233Z,74.7692
2023-05-10T00:27:28.275Z,73.2308
2023-05-10T00:28:29.342Z,75.9231
2023-05-10T00:29:30.408Z,75.8462
2023-05-10T00:30:31.378Z,73.3846
2023-05-10T00:31:32.421Z,77.0769
2023-05-10T00:32:33.453Z,72.3077
2023-05-10T00:33:34.486Z,74.7692
2023-05-10T00:34:35.502Z,76.7692
2023-05-10T00:35:36.529Z,75.1538
2023-05-10T00:36:37.534Z,75.0769
2023-05-10T00:37:38.580Z,74.3077
2023-05-10T00:38:39.648Z,63.3077
2023-05-10T00:39:40.702Z,65.5385
2023-05-10T00:40:41.718Z,70.6923
2023-05-10T00:41:42.737Z,71.0769
2023-05-10T00:42:43.719Z,74.2308
2023-05-10T00:43:44.750Z,76.1538
2023-05-10T00:44:45.815Z,80.2308
2023-05-10T00:45:46.885Z,82.4615
2023-05-10T00:46:47.862Z,81.9231
2023-05-10T00:47:48.911Z,83.1538
2023-05-10T00:48:49.929Z,86.6154
2023-05-10T00:49:50.931Z,87.6923
2023-05-10T00:50:51.987Z,84.9231
2023-05-10T00:51:53.012Z,89.8462
2023-05-10T00:52:54.025Z,89.5385
2023-05-10T00:53:55.033Z,94.0769
2023-05-10T00:54:56.092Z,91.0000
2023-05-10T00:55:57.139Z,88.7692
2023-05-10T00:56:58.213Z,90.0769
2023-05-10T00:57:59.153Z,84.5385
2023-05-10T00:59:00.214Z,78.7692
2023-05-10T01:00:01.235Z,80.6923
2023-05-10T01:01:02.349Z,81.9231
2023-05-10T01:02:03.364Z,78.0000
2023-05-10T01:03:04.394Z,81.3077
2023-05-10T01:04:05.356Z,81.0769
2023-05-10T01:05:06.476Z,87.8462
2023-05-10T01:06:07.454Z,83.1538
2023-05-10T01:07:08.497Z,73.3846
2023-05-10T01:08:09.478Z,73.3077
2023-05-10T01:09:10.518Z,71.3846
2023-05-10T01:10:11.543Z,69.7692
2023-05-10T01:11:12.596Z,70.7692
2023-05-10T01:12:13.688Z,73.2308
2023-05-10T01:13:14.739Z,78.8462
2023-05-10T01:14:15.697Z,82.7692
2023-05-10T01:15:16.712Z,82.4615
2023-05-10T01:16:17.829Z,82.8462
2023-05-10T01:17:18.822Z,83.5385
2023-05-10T01:18:19.781Z,82.9231
2023-05-10T01:19:20.893Z,81.3077
2023-05-10T01:20:21.917Z,80.6154
2023-05-10T01:21:23.026Z,82.1538
2023-05-10T01:22:24.017Z,81.8462
2023-05-10T01:23:25.019Z,81.6154
2023-05-10T01:24:26.062Z,82.4615
2023-05-10T01:25:27.036Z,78.0000
2023-05-10T01:26:28.115Z,81.1538
2023-05-10T01:27:29.136Z,81.7692
2023-05-10T01:28:30.200Z,77.6923
2023-05-10T01:29:31.197Z,80.5385
2023-05-10T01:30:32.250Z,79.9231
2023-05-10T01:31:33.312Z,80.1538
2023-05-10T01:32:34.344Z,77.7692
2023-05-10T01:33:35.297Z,81.2308
2023-05-10T01:34:36.337Z,77.3077
2023-05-10T01:35:37.358Z,79.3846
2023-05-10T01:36:38.465Z,77.5385
2023-05-10T01:37:39.460Z,81.3846
2023-05-10T01:38:40.477Z,78.1538
2023-05-10T01:39:41.476Z,77.6154
2023-05-10T01:40:42.515Z,78.8462
2023-05-10T01:41:43.533Z,80.7692
2023-05-10T01:42:44.622Z,82.2308
2023-05-10T01:43:45.594Z,80.3077
2023-05-10T01:44:46.739Z,79.0000
2023-05-10T01:45:47.736Z,78.7692
2023-05-10T01:46:48.845Z,75.0769
2023-05-10T01:47:49.868Z,77.6154
2023-05-10T01:48:50.852Z,77.6154
2023-05-10T01:49:51.868Z,80.3077
2023-05-10T01:50:52.893Z,79.6154
2023-05-10T01:51:53.968Z,72.2308
2023-05-10T01:52:55.012Z,66.7692
2023-05-10T01:53:55.993Z,72.2308
2023-05-10T01:54:57.010Z,70.8462
2023-05-10T01:55:58.032Z,71.3846
2023-05-10T01:56:59.130Z,72.7692
2023-05-10T01:58:00.178Z,66.9231
2023-05-10T01:59:01.182Z,68.6154
2023-05-10T02:00:02.163Z,71.0769
2023-05-10T02:01:03.211Z,73.3846
2023-05-10T02:02:04.292Z,73.6923
2023-05-10T02:03:05.359Z,72.5385
2023-05-10T02:04:06.425Z,72.4615
2023-05-10T02:05:07.291Z,72.5385
2023-05-10T02:06:08.337Z,69.4615
2023-05-10T02:07:09.405Z,69.2308
2023-05-10T02:08:10.500Z,71.2308
2023-05-10T02:09:11.470Z,70.8462
2023-05-10T02:10:12.475Z,64.9231
2023-05-10T02:11:13.496Z,66.4615
2023-05-10T02:12:14.571Z,69.3846
2023-05-10T02:13:15.596Z,75.4615
2023-05-10T02:14:16.670Z,76.7692
2023-05-10T02:15:17.612Z,79.3077
2023-05-10T02:16:18.665Z,82.3846
2023-05-10T02:17:19.737Z,79.3846
2023-05-10T02:18:20.785Z,81.3077
2023-05-10T02:19:21.774Z,86.6923
2023-05-10T02:20:22.760Z,88.4615
2023-05-10T02:21:23.771Z,80.0000
2023-05-10T02:22:24.828Z,80.3846
2023-05-10T02:23:25.900Z,81.7692
2023-05-10T02:24:26.908Z,84.4615
2023-05-10T02:25:27.896Z,84.0000
2023-05-10T02:26:29.028Z,83.8462
2023-05-10T02:27:30.032Z,83.3846
2023-05-10T02:28:31.035Z,84.9231
2023-05-10T02:29:32.053Z,86.0000
2023-05-10T02:30:33.034Z,83.5385
2023-05-10T02:31:34.115Z,81.3077
2023-05-10T02:32:35.199Z,76.7692
2023-05-10T02:33:36.175Z,79.3846
2023-05-10T02:34:37.192Z,78.2308
2023-05-10T02:35:38.186Z,70.2308
2023-05-10T02:36:39.205Z,73.2308
2023-05-10T02:37:40.234Z,75.8462
2023-05-10T02:38:41.334Z,74.4615
2023-05-10T02:39:42.340Z,79.3846
2023-05-10T02:40:43.322Z,79.3077
2023-05-10T02:41:44.329Z,83.0000
2023-05-10T02:42:45.371Z,85.6154
2023-05-10T02:43:46.477Z,80.6154
2023-05-10T02:44:47.472Z,81.0000
2023-05-10T02:45:48.478Z,81.2308
2023-05-10T02:46:49.473Z,83.2308
2023-05-10T02:47:50.581Z,82.0769
2023-05-10T02:48:51.610Z,80.6154
2023-05-10T02:49:52.617Z,86.3846
2023-05-10T02:50:53.622Z,82.6923
2023-05-10T02:51:54.637Z,80.0000
2023-05-10T02:52:55.655Z,80.0769
2023-05-10T02:53:56.774Z,81.8462
2023-05-10T02:54:57.777Z,80.9231
2023-05-10T02:55:58.774Z,83.0000
2023-05-10T02:56:59.836Z,82.0769
2023-05-10T02:58:00.936Z,88.5385
2023-05-10T02:59:01.931Z,92.1538
2023-05-10T03:00:03.022Z,89.0000
2023-05-10T03:01:03.978Z,92.0000
2023-05-10T03:02:04.953Z,91.0769
2023-05-10T03:03:06.020Z,85.1538
2023-05-10T03:04:07.189Z,80.6923
2023-05-10T03:05:08.172Z,82.6154
2023-05-10T03:06:09.112Z,86.3846
2023-05-10T03:07:10.333Z,87.7692
2023-05-10T03:08:11.214Z,85.2308
2023-05-10T03:09:12.256Z,82.1538
2023-05-10T03:10:13.283Z,81.2308
2023-05-10T03:11:14.266Z,81.6154
2023-05-10T03:12:15.317Z,82.7692
2023-05-10T03:13:16.349Z,85.0769
2023-05-10T03:14:17.412Z,88.3077
2023-05-10T03:15:18.456Z,89.5385
2023-05-10T03:16:19.517Z,86.0000
2023-05-10T03:17:20.471Z,86.0000
2023-05-10T03:18:21.590Z,88.3846
2023-05-10T03:19:22.622Z,83.0000
2023-05-10T03:20:23.584Z,85.0000
2023-05-10T03:21:24.614Z,85.7692
2023-05-10T03:22:25.602Z,83.0000
2023-05-10T03:23:26.629Z,81.0769
2023-05-10T03:24:27.716Z,83.1538
2023-05-10T03:25:28.744Z,84.7692
2023-05-10T03:26:29.721Z,84.2308
2023-05-10T03:27:30.747Z,81.2308
2023-05-10T03:28:31.816Z,77.5385
2023-05-10T03:29:32.857Z,74.0769
2023-05-10T03:30:33.969Z,71.1538
2023-05-10T03:31:34.959Z,68.3077
2023-05-10T03:32:35.965Z,69.1538
2023-05-10T03:33:36.983Z,70.0769
2023-05-10T03:34:38.020Z,62.6923
2023-05-10T03:35:39.095Z,57.0000
2023-05-10T03:36:40.123Z,65.3846
2023-05-10T03:37:41.084Z,70.6154
2023-05-10T03:38:42.096Z,76.3846
2023-05-10T03:39:43.198Z,83.7692
2023-05-10T03:40:44.232Z,85.6923
2023-05-10T03:41:45.190Z,88.5385
2023-05-10T03:42:46.298Z,84.6154
2023-05-10T03:43:47.241Z,86.5385
2023-05-10T03:44:48.376Z,86.4615
2023-05-10T03:45:49.341Z,85.1538
2023-05-10T03:46:50.419Z,80.2308
2023-05-10T03:47:51.414Z,77.1538
2023-05-10T03:48:52.399Z,81.7692
2023-05-10T03:49:53.511Z,81.6154
2023-05-10T03:50:54.530Z,85.3077
2023-05-10T03:51:55.515Z,90.9231
2023-05-10T03:52:56.537Z,91.6154
2023-05-10T03:53:57.557Z,89.7692
2023-05-10T03:54:58.628Z,85.3077
2023-05-10T03:55:59.655Z,86.4615
2023-05-10T03:57:00.654Z,87.0000
2023-05-10T03:58:01.708Z,88.0769
2023-05-10T03:59:02.759Z,81.2308
2023-05-10T04:00:03.803Z,78.5385
2023-05-10T04:01:04.816Z,80.8462
2023-05-10T04:02:05.900Z,83.0769
2023-05-10T04:03:06.942Z,85.2308
2023-05-10T04:04:07.907Z,83.8462
2023-05-10T04:05:08.980Z,87.6923
2023-05-10T04:06:09.994Z,90.2308
2023-05-10T04:07:10.958Z,92.0769
2023-05-10T04:08:11.998Z,91.6154
2023-05-10T04:09:13.088Z,91.1538
2023-05-10T04:10:14.372Z,90.3077
2023-05-10T04:11:15.212Z,86.3077
2023-05-10T04:12:16.133Z,84.0769
2023-05-10T04:13:17.177Z,85.3846
2023-05-10T04:14:18.194Z,81.6923
2023-05-10T04:15:19.280Z,76.7692
2023-05-10T04:16:20.309Z,80.1538
2023-05-10T04:17:21.354Z,83.0000
2023-05-10T04:18:22.297Z,86.1538
2023-05-10T04:19:23.420Z,86.7692
2023-05-10T04:20:24.481Z,83.8462
2023-05-10T04:21:25.541Z,82.1538
2023-05-10T04:22:26.509Z,76.5385
2023-05-10T04:23:27.459Z,79.9231
2023-05-10T04:24:28.510Z,82.7692
2023-05-10T04:25:29.536Z,81.9231
2023-05-10T04:26:30.647Z,83.6923
2023-05-10T04:27:31.637Z,83.3077
2023-05-10T04:28:32.666Z,78.8462
2023-05-10T04:29:33.689Z,72.2308
2023-05-10T04:30:34.778Z,68.3077
2023-05-10T04:31:35.842Z,72.4615
2023-05-10T04:32:36.919Z,73.8462
2023-05-10T04:33:37.795Z,81.4615
2023-05-10T04:34:38.845Z,83.3077
2023-05-10T04:35:39.890Z,76.6923
2023-05-10T04:36:40.944Z,80.5385
2023-05-10T04:37:42.021Z,82.8462
2023-05-10T04:38:42.936Z,72.5385
2023-05-10T04:39:43.996Z,39.3077
2023-05-10T04:40:45.021Z,53.3077
2023-05-10T04:41:46.167Z,33.8462
2023-05-10T04:42:47.184Z,40.0000
2023-05-10T04:43:48.189Z,24.8462
2023-05-10T04:44:49.223Z,0.0000
2023-05-10T04:45:50.201Z,0.2308
2023-05-10T04:46:51.292Z,1.3077
2023-05-10T04:47:52.303Z,15.9231
2023-05-10T04:48:53.257Z,36.4615
2023-05-10T04:49:54.369Z,31.3846
2023-05-10T04:50:55.398Z,29.1538
2023-05-10T04:51:56.500Z,34.6923
2023-05-10T04:52:57.416Z,43.8462
2023-05-10T04:54:06.123Z,54.0000
2023-05-10T04:54:59.612Z,58.7692
2023-05-10T04:56:00.515Z,55.6154
2023-05-10T04:57:01.593Z,49.9231
2023-05-10T04:58:02.648Z,60.2308
2023-05-10T04:59:03.635Z,47.6923
2023-05-10T05:00:04.644Z,49.4615
2023-05-10T05:01:05.679Z,46.8462
2023-05-10T05:02:06.831Z,51.7692
2023-05-10T05:03:07.943Z,62.0769
2023-05-10T05:04:08.782Z,66.5385
2023-05-10T05:05:09.794Z,59.4615
2023-05-10T05:06:10.911Z,61.7692
2023-05-10T05:07:11.915Z,60.5385
2023-05-10T05:08:12.968Z,60.2308
2023-05-10T05:09:13.980Z,63.6923
2023-05-10T05:10:15.086Z,64.0769
2023-05-10T05:11:15.998Z,69.7692
2023-05-10T05:12:17.094Z,41.3077
2023-05-10T05:13:18.194Z,28.8462
2023-05-10T05:14:19.095Z,32.4615
2023-05-10T05:15:20.166Z,46.5385
2023-05-10T05:16:21.355Z,56.3846
2023-05-10T05:17:22.357Z,64.9231
2023-05-10T05:18:23.300Z,75.6154
2023-05-10T05:19:24.275Z,61.4615
2023-05-10T05:20:25.391Z,31.5385
2023-05-10T05:21:26.445Z,30.8462
2023-05-10T05:22:27.505Z,38.5385
2023-05-10T05:23:28.567Z,50.7692
2023-05-10T05:24:29.563Z,47.8462
2023-05-10T05:25:30.565Z,79.4615
2023-05-10T05:26:31.580Z,83.3846
2023-05-10T05:27:32.687Z,72.6923
2023-05-10T05:28:33.695Z,70.3077
2023-05-10T05:29:34.745Z,71.0000
2023-05-10T05:30:35.679Z,76.7692
2023-05-10T05:31:36.833Z,92.1538
2023-05-10T05:32:37.931Z,100.2308
2023-05-10T05:33:38.865Z,91.1538
2023-05-10T05:34:39.896Z,86.3846
2023-05-10T05:35:40.914Z,82.1538
2023-05-10T05:36:41.960Z,77.2308
2023-05-10T05:37:43.021Z,81.5385
2023-05-10T05:38:44.027Z,78.0769
2023-05-10T05:39:45.049Z,83.0000
2023-05-10T05:40:46.032Z,85.8462
2023-05-10T05:41:47.143Z,83.0000
2023-05-10T05:42:48.123Z,87.7692
2023-05-10T05:43:49.191Z,87.5385
2023-05-10T05:44:50.136Z,85.7692
2023-05-10T05:45:51.283Z,77.5385
2023-05-10T05:46:52.319Z,66.7692
2023-05-10T05:47:53.404Z,73.3077
2023-05-10T05:48:54.294Z,74.3077
2023-05-10T05:49:55.326Z,70.7692
2023-05-10T05:50:56.346Z,75.9231
2023-05-10T05:51:57.411Z,73.5385
2023-05-10T05:52:58.410Z,73.9231
2023-05-10T05:53:59.540Z,74.6923
2023-05-10T05:55:00.558Z,74.5385
2023-05-10T05:56:01.504Z,69.1538
2023-05-10T05:57:02.581Z,72.0769
2023-05-10T05:58:03.579Z,71.3077
2023-05-10T05:59:04.557Z,61.0000
2023-05-10T06:00:05.704Z,59.6154
2023-05-10T06:01:06.659Z,62.9231
2023-05-10T06:02:07.751Z,66.4615
2023-05-10T06:03:08.838Z,66.1538
2023-05-10T06:04:09.792Z,66.9231
2023-05-10T06:05:10.845Z,68.3077
2023-05-10T06:06:11.835Z,74.4615
2023-05-10T06:07:12.893Z,63.8462
2023-05-10T06:08:13.906Z,57.4615
2023-05-10T06:09:14.874Z,63.9231
2023-05-10T06:10:15.955Z,64.5385
2023-05-10T06:11:17.045Z,66.3077
2023-05-10T06:12:18.049Z,68.3846
2023-05-10T06:13:19.093Z,65.5385
2023-05-10T06:14:20.036Z,69.6923
2023-05-10T06:15:21.151Z,71.3077
2023-05-10T06:16:22.154Z,77.3846
2023-05-10T06:17:23.173Z,77.8462
2023-05-10T06:18:24.197Z,72.8462
2023-05-10T06:19:25.259Z,68.4615
2023-05-10T06:20:26.272Z,64.9231
2023-05-10T06:21:27.272Z,60.6154
2023-05-10T06:22:28.418Z,67.0000
2023-05-10T06:23:29.335Z,59.5385
2023-05-10T06:24:30.436Z,46.9231
2023-05-10T06:25:31.388Z,41.3846
2023-05-10T06:26:32.482Z,39.1538
2023-05-10T06:27:33.541Z,47.0000
2023-05-10T06:28:34.545Z,51.8462
2023-05-10T06:29:35.568Z,49.3077
2023-05-10T06:30:36.611Z,44.9231
2023-05-10T06:31:37.658Z,46.3846
2023-05-10T06:32:38.705Z,53.9231
2023-05-10T06:33:39.726Z,53.3846
2023-05-10T06:34:40.734Z,41.2308
2023-05-10T06:35:41.800Z,38.4615
2023-05-10T06:36:42.755Z,31.5385
2023-05-10T06:37:43.835Z,37.6923
2023-05-10T06:38:44.910Z,24.6923
2023-05-10T06:39:45.924Z,4.3077
2023-05-10T06:40:46.899Z,0.0000
2023-05-10T06:41:47.988Z,5.3846
2023-05-10T06:42:49.005Z,7.8462
2023-05-10T06:43:50.077Z,0.0000
2023-05-10T06:44:51.059Z,8.6154
2023-05-10T06:45:52.159Z,19.6923
2023-05-10T06:46:53.137Z,25.0000
2023-05-10T06:47:54.210Z,24.2308
2023-05-10T06:48:55.204Z,19.3846
2023-05-10T06:49:56.283Z,7.8462
2023-05-10T06:50:57.251Z,13.6923
2023-05-10T06:51:58.325Z,9.7692
2023-05-10T06:52:59.325Z,5.1538
2023-05-10T06:54:00.454Z,2.2308
2023-05-10T06:55:01.440Z,4.0769
2023-05-10T06:56:02.441Z,15.5385
2023-05-10T06:57:04.151Z,32.1538
2023-05-10T06:58:04.585Z,35.6923
2023-05-10T06:59:05.642Z,32.6923
2023-05-10T07:00:06.662Z,31.4615
2023-05-10T07:01:07.818Z,31.7692
2023-05-10T07:02:08.670Z,27.2308
2023-05-10T07:03:09.708Z,31.2308
2023-05-10T07:04:10.746Z,14.2308
2023-05-10T07:05:11.796Z,0.0000
2023-05-10T07:06:21.702Z,5.9231
2023-05-10T07:07:13.844Z,25.4615
2023-05-10T07:08:14.866Z,33.2308
2023-05-10T07:09:15.952Z,29.6923
2023-05-10T07:10:16.956Z,30.8462
2023-05-10T07:11:18.019Z,24.6923
2023-05-10T07:12:19.080Z,27.6923
2023-05-10T07:13:20.131Z,29.6923
2023-05-10T07:14:21.012Z,31.1538
2023-05-10T07:15:22.176Z,34.0769
2023-05-10T07:16:23.293Z,29.3077
2023-05-10T07:17:24.314Z,34.5385
2023-05-10T07:18:25.210Z,40.3077
2023-05-10T07:19:26.322Z,37.4615
2023-05-10T07:20:27.293Z,43.4615
2023-05-10T07:21:28.350Z,44.6154
2023-05-10T07:22:29.293Z,35.1538
2023-05-10T07:23:30.375Z,41.4615
2023-05-10T07:24:31.381Z,42.6923
2023-05-10T07:25:32.452Z,35.6154
2023-05-10T07:26:33.556Z,35.6923
2023-05-10T07:27:34.521Z,41.8462
2023-05-10T07:28:35.620Z,52.1538
2023-05-10T07:29:36.623Z,47.6923
2023-05-10T07:30:37.702Z,47.3077
2023-05-10T07:31:38.775Z,43.6154
2023-05-10T07:32:39.757Z,39.4615
2023-05-10T07:33:40.736Z,33.8462
2023-05-10T07:34:41.733Z,37.2308
2023-05-10T07:35:42.841Z,37.2308
2023-05-10T07:36:43.889Z,31.3077
2023-05-10T07:37:44.879Z,22.0769
2023-05-10T07:38:45.855Z,51.3077
2023-05-10T07:39:46.939Z,121.6154
2023-05-10T07:40:47.999Z,84.7692
2023-05-10T07:41:49.048Z,82.7692
2023-05-10T07:42:50.003Z,60.9231
2023-05-10T07:43:51.078Z,50.3077
2023-05-10T07:44:52.107Z,39.8462
2023-05-10T07:45:56.030Z,45.2308
2023-05-10T07:46:54.249Z,39.3846
2023-05-10T07:47:55.304Z,38.9231
2023-05-10T07:48:56.367Z,42.4615
2023-05-10T07:49:57.276Z,40.4615
2023-05-10T07:50:58.351Z,46.7692
2023-05-10T07:51:59.398Z,46.3846
2023-05-10T07:53:00.366Z,44.8462
2023-05-10T07:54:01.418Z,56.3077
2023-05-10T07:55:02.479Z,60.2308
2023-05-10T07:56:03.595Z,55.8462
2023-05-10T07:57:04.553Z,56.9231
2023-05-10T07:58:05.634Z,51.9231
2023-05-10T07:59:06.601Z,49.2308
2023-05-10T08:00:07.660Z,56.3846
2023-05-10T08:01:08.716Z,41.8462
2023-05-10T08:02:09.753Z,36.1538
2023-05-10T08:03:10.955Z,45.6923
2023-05-10T08:04:11.757Z,44.3077
2023-05-10T08:05:12.770Z,36.9231
2023-05-10T08:06:13.860Z,28.9231
2023-05-10T08:07:14.936Z,68.5385
2023-05-10T08:08:15.976Z,170.3846
2023-05-10T08:09:16.961Z,69.5385
2023-05-10T08:10:17.966Z,1.6154
2023-05-10T08:11:19.060Z,1.9231
2023-05-10T08:12:20.076Z,11.0769
2023-05-10T08:13:21.125Z,25.6154
2023-05-10T08:14:22.119Z,2.2308
2023-05-10T08:15:23.134Z,0.7692
2023-05-10T08:16:24.332Z,1.1538
2023-05-10T08:17:25.314Z,7.4615
2023-05-10T08:18:26.347Z,18.6923
2023-05-10T08:19:27.250Z,19.2308
2023-05-10T08:20:28.367Z,21.7692
2023-05-10T08:21:29.415Z,30.2308
2023-05-10T08:22:30.479Z,34.6154
2023-05-10T08:23:31.417Z,30.8462
2023-05-10T08:24:32.476Z,26.8462
2023-05-10T08:25:33.519Z,38.5385
2023-05-10T08:26:34.658Z,42.9231
2023-05-10T08:27:35.564Z,48.9231
2023-05-10T08:28:36.596Z,37.6154
2023-05-10T08:29:48.878Z,73.7692
2023-05-10T08:30:38.644Z,76.4615
2023-05-10T08:31:39.853Z,48.4615
2023-05-10T08:32:40.820Z,66.6154
2023-05-10T08:33:43.067Z,46.0000
2023-05-10T08:34:42.822Z,28.2308
2023-05-10T08:35:43.820Z,34.0769
2023-05-10T08:36:44.907Z,43.4615
2023-05-10T08:37:45.955Z,42.4615
2023-05-10T08:38:46.956Z,24.9231
2023-05-10T08:39:47.965Z,14.0769
2023-05-10T08:40:49.080Z,14.3077
2023-05-10T08:41:50.067Z,9.0769
2023-05-10T08:42:51.152Z,5.4615
2023-05-10T08:43:52.101Z,53.6923
2023-05-10T08:44:53.159Z,430.0000
2023-05-10T08:45:54.170Z,401.4615
2023-05-10T08:46:55.446Z,229.3846
2023-05-10T08:47:56.351Z,101.0000
2023-05-10T08:48:57.323Z,41.2308
2023-05-10T08:49:58.307Z,22.6923
2023-05-10T08:50:59.367Z,16.7692
2023-05-10T08:52:00.429Z,14.3077
2023-05-10T08:53:01.479Z,17.6154
2023-05-10T08:54:02.497Z,20.1538
2023-05-10T08:55:03.479Z,20.4615
2023-05-10T08:56:04.523Z,17.6154
2023-05-10T08:57:05.677Z,16.5385
2023-05-10T08:58:06.650Z,21.3077
2023-05-10T08:59:07.611Z,19.0000
2023-05-10T09:00:08.677Z,152.9231
2023-05-10T09:01:09.814Z,124.9231
2023-05-10T09:02:10.778Z,395.9231
2023-05-10T09:03:11.791Z,142.0769
2023-05-10T09:04:12.849Z,50.3846
2023-05-10T09:05:13.915Z,10.0000
2023-05-10T09:06:14.825Z,1.8462
2023-05-10T09:07:15.994Z,0.0000
2023-05-10T09:08:16.998Z,0.0769
2023-05-10T09:09:17.935Z,12.1538
2023-05-10T09:10:19.045Z,15.1538
2023-05-10T09:11:20.041Z,14.5385
2023-05-10T09:12:21.056Z,19.2308
2023-05-10T09:13:22.135Z,28.0769
2023-05-10T09:14:23.143Z,27.5385
2023-05-10T09:15:24.215Z,24.6923
2023-05-10T09:16:25.193Z,24.4615
2023-05-10T09:17:26.481Z,20.3077
2023-05-10T09:18:28.113Z,11.6923
2023-05-10T09:19:28.354Z,1.3846
2023-05-10T09:20:29.527Z,10.6923
2023-05-10T09:21:30.453Z,16.4615
2023-05-10T09:22:31.499Z,11.0000
2023-05-10T09:23:32.532Z,11.1538
2023-05-10T09:24:33.546Z,10.3077
2023-05-10T09:25:34.559Z,19.0000
2023-05-10T09:26:35.601Z,25.7692
2023-05-10T09:27:36.726Z,11.0769
2023-05-10T09:28:37.710Z,18.2308
2023-05-10T09:29:38.794Z,24.3077
2023-05-10T09:30:39.760Z,25.6154
2023-05-10T09:31:40.766Z,26.3077
2023-05-10T09:32:41.906Z,0.0000
2023-05-10T09:33:42.870Z,1.3077
2023-05-10T09:34:43.869Z,1.6154
2023-05-10T09:35:44.925Z,0.0000
2023-05-10T09:36:45.915Z,12.9231
2023-05-10T09:37:46.997Z,22.3077
2023-05-10T09:38:48.127Z,2.6154
2023-05-10T09:39:49.098Z,1.6923
2023-05-10T09:40:50.067Z,15.6923
2023-05-10T09:41:51.133Z,19.2308
2023-05-10T09:42:52.222Z,13.1538
2023-05-10T09:43:53.241Z,18.2308
2023-05-10T09:44:54.252Z,7.8462
2023-05-10T09:45:55.253Z,0.0769
2023-05-10T09:46:56.353Z,0.6923
2023-05-10T09:47:57.449Z,7.8462
2023-05-10T09:48:58.466Z,18.0000
2023-05-10T09:49:59.389Z,29.9231
2023-05-10T09:51:00.446Z,24.8462
2023-05-10T09:52:01.469Z,12.0769
2023-05-10T09:53:02.513Z,4.6154
2023-05-10T09:54:03.561Z,0.0769
2023-05-10T09:55:04.551Z,3.2308
2023-05-10T09:56:05.621Z,4.0000
2023-05-10T09:57:06.580Z,6.2308
2023-05-10T09:58:07.778Z,4.3846
2023-05-10T09:59:08.692Z,10.8462
2023-05-10T10:00:09.757Z,15.6923
2023-05-10T10:01:10.783Z,26.3846
2023-05-10T10:02:11.738Z,28.3846
2023-05-10T10:03:12.894Z,30.0000
2023-05-10T10:04:13.934Z,33.8462
2023-05-10T10:05:15.125Z,36.6154
2023-05-10T10:06:29.120Z,38.4615
2023-05-10T10:07:16.923Z,33.6923
2023-05-10T10:08:18.048Z,26.8462
2023-05-10T10:09:19.002Z,22.1538
2023-05-10T10:10:20.093Z,25.6923
2023-05-10T10:11:21.072Z,13.9231
2023-05-10T10:12:22.083Z,24.3077
2023-05-10T10:13:23.175Z,30.1538
2023-05-10T10:14:24.213Z,22.0769
2023-05-10T10:15:25.222Z,16.2308
2023-05-10T10:16:26.296Z,14.4615
2023-05-10T10:17:27.404Z,1.2308
2023-05-10T10:18:28.450Z,9.7692
2023-05-10T10:19:29.376Z,4.5385
2023-05-10T10:20:30.297Z,5.0000
2023-05-10T10:21:31.382Z,19.0769
2023-05-10T10:22:32.470Z,31.6923
2023-05-10T10:23:33.505Z,25.4615
2023-05-10T10:24:34.504Z,20.6154
2023-05-10T10:25:35.465Z,5.8462
2023-05-10T10:26:36.593Z,0.3077
2023-05-10T10:27:37.536Z,0.0000
2023-05-10T10:28:38.649Z,0.9231
2023-05-10T10:29:39.655Z,7.3846
2023-05-10T10:30:40.679Z,16.2308
2023-05-10T10:31:41.737Z,29.8462
2023-05-10T10:32:42.834Z,27.8462
2023-05-10T10:33:44.859Z,15.6923
2023-05-10T10:34:44.851Z,10.6154
2023-05-10T10:35:45.884Z,3.5385
2023-05-10T10:36:46.898Z,7.6923
2023-05-10T10:37:47.970Z,10.5385
2023-05-10T10:38:49.044Z,18.6923
2023-05-10T10:39:49.974Z,19.7692
2023-05-10T10:40:51.001Z,18.2308
2023-05-10T10:41:52.072Z,18.9231
2023-05-10T10:42:53.164Z,29.6154
2023-05-10T10:43:54.138Z,37.9231
2023-05-10T10:44:55.223Z,27.2308
2023-05-10T10:45:56.198Z,7.1538
2023-05-10T10:46:57.207Z,1.0000
2023-05-10T10:47:58.222Z,11.3846
2023-05-10T10:48:59.319Z,24.3077
2023-05-10T10:50:00.380Z,29.6923
2023-05-10T10:51:01.318Z,43.3846
2023-05-10T10:52:02.360Z,49.3077
2023-05-10T10:53:03.431Z,59.8462
2023-05-10T10:54:04.512Z,14.0769
2023-05-10T10:55:05.559Z,13.5385
2023-05-10T10:56:06.497Z,26.1538
2023-05-10T10:57:07.614Z,29.3077
2023-05-10T10:58:08.551Z,26.0000
2023-05-10T10:59:09.661Z,19.2308
2023-05-10T11:00:10.669Z,23.4615
2023-05-10T11:01:11.798Z,30.3846
2023-05-10T11:02:12.674Z,20.7692
2023-05-10T11:03:13.857Z,30.9231
2023-05-10T11:04:14.868Z,35.5385
2023-05-10T11:05:16.106Z,41.0000
2023-05-10T11:06:16.884Z,37.4615
2023-05-10T11:07:17.889Z,36.6923
2023-05-10T11:08:18.929Z,36.1538
2023-05-10T11:09:20.006Z,37.5385
2023-05-10T11:10:21.029Z,41.4615
2023-05-10T11:11:21.995Z,43.7692
2023-05-10T11:12:23.053Z,42.4615
2023-05-10T11:13:24.072Z,42.4615
2023-05-10T11:14:25.156Z,26.6923
2023-05-10T11:15:26.196Z,20.2308
2023-05-10T11:16:27.259Z,14.1538
2023-05-10T11:17:28.228Z,24.9231
2023-05-10T11:18:29.305Z,35.2308
2023-05-10T11:19:30.212Z,36.0769
2023-05-10T11:20:31.275Z,37.3846
2023-05-10T11:21:32.412Z,31.4615
2023-05-10T11:22:33.279Z,25.8462
2023-05-10T11:23:34.311Z,17.7692
2023-05-10T11:24:35.402Z,23.9231
2023-05-10T11:25:36.387Z,28.4615
2023-05-10T11:26:37.419Z,20.7692
2023-05-10T11:27:38.685Z,24.5385
2023-05-10T11:28:39.479Z,32.9231
2023-05-10T11:29:40.563Z,25.6923
2023-05-10T11:30:41.671Z,26.9231
2023-05-10T11:31:42.561Z,239.0000
2023-05-10T11:32:43.647Z,84.6923
2023-05-10T11:33:44.624Z,45.2308
2023-05-10T11:34:45.711Z,45.0000
2023-05-10T11:35:46.723Z,41.8462
2023-05-10T11:36:47.778Z,38.1538
2023-05-10T11:37:48.817Z,36.6923
2023-05-10T11:38:49.884Z,23.6923
2023-05-10T11:39:50.860Z,26.6154
2023-05-10T11:40:51.920Z,28.0769
2023-05-10T11:41:52.929Z,20.8462
2023-05-10T11:42:53.932Z,35.9231
2023-05-10T11:43:54.984Z,40.1538
2023-05-10T11:44:56.055Z,40.7692
2023-05-10T11:45:57.038Z,50.0000
2023-05-10T11:46:58.139Z,51.3077
2023-05-10T11:47:59.139Z,36.0769
2023-05-10T11:49:00.120Z,35.0769
2023-05-10T11:50:01.173Z,31.4615
2023-05-10T11:51:02.209Z,26.1538
2023-05-10T11:52:03.290Z,18.5385
2023-05-10T11:53:04.286Z,13.2308
2023-05-10T11:54:05.561Z,23.5385
2023-05-10T11:55:06.362Z,12.0000
2023-05-10T11:56:07.397Z,2.8462
2023-05-10T11:57:08.426Z,1.3846
2023-05-10T11:58:09.413Z,1.7692
2023-05-10T11:59:10.469Z,0.2308
2023-05-10T12:00:11.522Z,0.0000
2023-05-10T12:01:12.593Z,0.1538
2023-05-10T12:02:13.587Z,0.4615
2023-05-10T12:03:14.728Z,0.0000
2023-05-10T12:04:15.759Z,0.0000
2023-05-10T12:05:16.687Z,6.1538
2023-05-10T12:06:17.749Z,11.1538
2023-05-10T12:07:18.821Z,2.0769
2023-05-10T12:08:19.789Z,0.0000
2023-05-10T12:09:31.478Z,5.4615
2023-05-10T12:10:21.846Z,13.7692
2023-05-10T12:11:22.940Z,13.6154
2023-05-10T12:12:23.955Z,27.6923
2023-05-10T12:13:24.968Z,33.3846
2023-05-10T12:14:26.003Z,30.5385
2023-05-10T12:15:27.032Z,29.5385
2023-05-10T12:16:28.153Z,46.4615
2023-05-10T12:17:29.145Z,49.2308
2023-05-10T12:18:30.205Z,57.7692
2023-05-10T12:19:31.145Z,60.0000